sensor_id;sensor_type;location;lat;lon;timestamp;temperature;humidity
34153;DHT22;20426;48.372;10.888;2022-07-23T00:00:26;24.60;88.10
34153;DHT22;20426;48.372;10.888;2022-07-23T00:00:57;24.60;88.30
34153;DHT22;20426;48.372;10.888;2022-07-23T00:01:28;24.60;89.10
34153;DHT22;20426;48.372;10.888;2022-07-23T00:01:59;24.60;88.50
34153;DHT22;20426;48.372;10.888;2022-07-23T00:02:30;24.50;88.60
34153;DHT22;20426;48.372;10.888;2022-07-23T00:03:00;24.60;88.50
34153;DHT22;20426;48.372;10.888;2022-07-23T00:03:31;24.50;88.10
34153;DHT22;20426;48.372;10.888;2022-07-23T00:04:02;24.60;88.30
34153;DHT22;20426;48.372;10.888;2022-07-23T00:04:33;24.50;88.30
34153;DHT22;20426;48.372;10.888;2022-07-23T00:05:04;24.60;88.20
34153;DHT22;20426;48.372;10.888;2022-07-23T00:05:35;24.60;88.10
34153;DHT22;20426;48.372;10.888;2022-07-23T00:06:06;24.50;88.20
34153;DHT22;20426;48.372;10.888;2022-07-23T00:06:37;24.50;88.50
34153;DHT22;20426;48.372;10.888;2022-07-23T00:07:07;24.50;89.10
34153;DHT22;20426;48.372;10.888;2022-07-23T00:07:38;24.50;89.60
34153;DHT22;20426;48.372;10.888;2022-07-23T00:08:09;24.50;89.70
34153;DHT22;20426;48.372;10.888;2022-07-23T00:08:40;24.50;89.90
34153;DHT22;20426;48.372;10.888;2022-07-23T00:09:11;24.40;90.00
34153;DHT22;20426;48.372;10.888;2022-07-23T00:09:42;24.40;90.00
34153;DHT22;20426;48.372;10.888;2022-07-23T00:10:12;24.40;90.00
34153;DHT22;20426;48.372;10.888;2022-07-23T00:10:43;24.40;90.50
34153;DHT22;20426;48.372;10.888;2022-07-23T00:11:14;24.40;90.70
34153;DHT22;20426;48.372;10.888;2022-07-23T00:11:45;24.40;90.80
34153;DHT22;20426;48.372;10.888;2022-07-23T00:12:16;24.40;90.70
34153;DHT22;20426;48.372;10.888;2022-07-23T00:12:46;24.30;90.60
34153;DHT22;20426;48.372;10.888;2022-07-23T00:13:17;24.30;90.50
34153;DHT22;20426;48.372;10.888;2022-07-23T00:13:48;24.30;90.40
34153;DHT22;20426;48.372;10.888;2022-07-23T00:14:19;24.30;90.40
34153;DHT22;20426;48.372;10.888;2022-07-23T00:14:50;24.30;90.60
34153;DHT22;20426;48.372;10.888;2022-07-23T00:15:21;24.30;90.80
34153;DHT22;20426;48.372;10.888;2022-07-23T00:15:51;24.30;90.90
34153;DHT22;20426;48.372;10.888;2022-07-23T00:16:22;24.20;90.80
34153;DHT22;20426;48.372;10.888;2022-07-23T00:16:53;24.20;90.70
34153;DHT22;20426;48.372;10.888;2022-07-23T00:17:24;24.20;90.70
34153;DHT22;20426;48.372;10.888;2022-07-23T00:17:54;24.20;90.80
34153;DHT22;20426;48.372;10.888;2022-07-23T00:18:25;24.20;90.80
34153;DHT22;20426;48.372;10.888;2022-07-23T00:18:56;24.20;90.70
34153;DHT22;20426;48.372;10.888;2022-07-23T00:19:26;24.20;90.60
34153;DHT22;20426;48.372;10.888;2022-07-23T00:19:57;24.20;90.90
34153;DHT22;20426;48.372;10.888;2022-07-23T00:20:28;24.20;90.90
34153;DHT22;20426;48.372;10.888;2022-07-23T00:20:59;24.20;91.00
34153;DHT22;20426;48.372;10.888;2022-07-23T00:21:29;24.20;90.80
34153;DHT22;20426;48.372;10.888;2022-07-23T00:22:03;24.20;90.70
34153;DHT22;20426;48.372;10.888;2022-07-23T00:22:33;24.20;91.00
34153;DHT22;20426;48.372;10.888;2022-07-23T00:23:04;24.20;91.10
34153;DHT22;20426;48.372;10.888;2022-07-23T00:23:35;24.20;91.30
34153;DHT22;20426;48.372;10.888;2022-07-23T00:24:06;24.20;91.30
34153;DHT22;20426;48.372;10.888;2022-07-23T00:24:36;24.20;91.40
34153;DHT22;20426;48.372;10.888;2022-07-23T00:25:07;24.20;91.50
34153;DHT22;20426;48.372;10.888;2022-07-23T00:25:38;24.20;91.50
34153;DHT22;20426;48.372;10.888;2022-07-23T00:26:09;24.20;91.30
34153;DHT22;20426;48.372;10.888;2022-07-23T00:26:39;24.20;91.20
34153;DHT22;20426;48.372;10.888;2022-07-23T00:27:10;24.20;91.20
34153;DHT22;20426;48.372;10.888;2022-07-23T00:27:41;24.20;91.10
34153;DHT22;20426;48.372;10.888;2022-07-23T00:28:12;24.20;91.10
34153;DHT22;20426;48.372;10.888;2022-07-23T00:28:42;24.20;90.90
34153;DHT22;20426;48.372;10.888;2022-07-23T00:29:13;24.20;91.00
34153;DHT22;20426;48.372;10.888;2022-07-23T00:29:44;24.20;91.00
34153;DHT22;20426;48.372;10.888;2022-07-23T00:30:15;24.20;90.40
34153;DHT22;20426;48.372;10.888;2022-07-23T00:30:45;24.20;89.90
34153;DHT22;20426;48.372;10.888;2022-07-23T00:31:16;24.20;89.60
34153;DHT22;20426;48.372;10.888;2022-07-23T00:31:47;24.20;88.30
34153;DHT22;20426;48.372;10.888;2022-07-23T00:32:18;24.20;88.60
34153;DHT22;20426;48.372;10.888;2022-07-23T00:32:53;24.20;88.90
34153;DHT22;20426;48.372;10.888;2022-07-23T00:33:24;24.20;88.80
34153;DHT22;20426;48.372;10.888;2022-07-23T00:33:54;24.20;88.50
34153;DHT22;20426;48.372;10.888;2022-07-23T00:34:27;24.20;88.40
34153;DHT22;20426;48.372;10.888;2022-07-23T00:34:58;24.20;88.70
34153;DHT22;20426;48.372;10.888;2022-07-23T00:35:30;24.20;89.20
34153;DHT22;20426;48.372;10.888;2022-07-23T00:36:01;24.20;88.70
34153;DHT22;20426;48.372;10.888;2022-07-23T00:36:32;24.20;89.30
34153;DHT22;20426;48.372;10.888;2022-07-23T00:37:03;24.20;89.30
34153;DHT22;20426;48.372;10.888;2022-07-23T00:37:34;24.20;87.90
34153;DHT22;20426;48.372;10.888;2022-07-23T00:38:05;24.20;88.40
34153;DHT22;20426;48.372;10.888;2022-07-23T00:38:35;24.20;88.60
34153;DHT22;20426;48.372;10.888;2022-07-23T00:39:06;24.20;88.20
34153;DHT22;20426;48.372;10.888;2022-07-23T00:39:37;24.20;88.20
34153;DHT22;20426;48.372;10.888;2022-07-23T00:40:08;24.20;87.70
34153;DHT22;20426;48.372;10.888;2022-07-23T00:40:39;24.20;87.40
34153;DHT22;20426;48.372;10.888;2022-07-23T00:41:10;24.20;87.20
34153;DHT22;20426;48.372;10.888;2022-07-23T00:41:41;24.30;87.70
34153;DHT22;20426;48.372;10.888;2022-07-23T00:42:12;24.30;87.90
34153;DHT22;20426;48.372;10.888;2022-07-23T00:42:43;24.20;88.30
34153;DHT22;20426;48.372;10.888;2022-07-23T00:43:14;24.30;86.80
34153;DHT22;20426;48.372;10.888;2022-07-23T00:43:45;24.30;87.00
34153;DHT22;20426;48.372;10.888;2022-07-23T00:44:24;24.30;87.40
34153;DHT22;20426;48.372;10.888;2022-07-23T00:44:54;24.30;87.20
34153;DHT22;20426;48.372;10.888;2022-07-23T00:45:25;24.30;85.90
34153;DHT22;20426;48.372;10.888;2022-07-23T00:45:56;24.30;85.90
34153;DHT22;20426;48.372;10.888;2022-07-23T00:46:27;24.30;86.00
34153;DHT22;20426;48.372;10.888;2022-07-23T00:46:58;24.30;85.40
34153;DHT22;20426;48.372;10.888;2022-07-23T00:47:29;24.30;85.60
34153;DHT22;20426;48.372;10.888;2022-07-23T00:48:00;24.30;85.50
34153;DHT22;20426;48.372;10.888;2022-07-23T00:48:31;24.30;85.70
34153;DHT22;20426;48.372;10.888;2022-07-23T00:49:02;24.30;85.60
34153;DHT22;20426;48.372;10.888;2022-07-23T00:49:33;24.30;86.50
34153;DHT22;20426;48.372;10.888;2022-07-23T00:50:05;24.30;86.90
34153;DHT22;20426;48.372;10.888;2022-07-23T00:50:37;24.30;87.00
34153;DHT22;20426;48.372;10.888;2022-07-23T00:51:07;24.30;87.10
34153;DHT22;20426;48.372;10.888;2022-07-23T00:51:38;24.20;89.70
34153;DHT22;20426;48.372;10.888;2022-07-23T00:52:09;24.20;90.10
34153;DHT22;20426;48.372;10.888;2022-07-23T00:52:40;24.20;90.20
34153;DHT22;20426;48.372;10.888;2022-07-23T00:53:11;24.10;91.10
34153;DHT22;20426;48.372;10.888;2022-07-23T00:53:43;24.00;91.50
34153;DHT22;20426;48.372;10.888;2022-07-23T00:54:15;24.00;91.70
34153;DHT22;20426;48.372;10.888;2022-07-23T00:54:46;23.90;92.10
34153;DHT22;20426;48.372;10.888;2022-07-23T00:55:17;23.80;92.60
34153;DHT22;20426;48.372;10.888;2022-07-23T00:55:47;23.80;92.70
34153;DHT22;20426;48.372;10.888;2022-07-23T00:56:19;23.80;92.80
34153;DHT22;20426;48.372;10.888;2022-07-23T00:56:50;23.70;93.20
34153;DHT22;20426;48.372;10.888;2022-07-23T00:57:20;23.60;93.10
34153;DHT22;20426;48.372;10.888;2022-07-23T00:57:53;23.50;92.80
34153;DHT22;20426;48.372;10.888;2022-07-23T00:58:24;23.50;93.10
34153;DHT22;20426;48.372;10.888;2022-07-23T00:58:55;23.40;92.90
34153;DHT22;20426;48.372;10.888;2022-07-23T00:59:26;23.30;92.90
34153;DHT22;20426;48.372;10.888;2022-07-23T00:59:57;23.30;93.40
34153;DHT22;20426;48.372;10.888;2022-07-23T01:00:28;23.20;94.30
34153;DHT22;20426;48.372;10.888;2022-07-23T01:00:59;23.20;93.10
34153;DHT22;20426;48.372;10.888;2022-07-23T01:01:30;23.10;94.10
34153;DHT22;20426;48.372;10.888;2022-07-23T01:02:01;23.10;94.40
34153;DHT22;20426;48.372;10.888;2022-07-23T01:02:31;23.00;94.60
34153;DHT22;20426;48.372;10.888;2022-07-23T01:03:02;23.00;95.30
34153;DHT22;20426;48.372;10.888;2022-07-23T01:03:33;22.90;95.00
34153;DHT22;20426;48.372;10.888;2022-07-23T01:04:04;22.90;94.80
34153;DHT22;20426;48.372;10.888;2022-07-23T01:04:34;22.80;95.20
34153;DHT22;20426;48.372;10.888;2022-07-23T01:05:06;22.80;94.60
34153;DHT22;20426;48.372;10.888;2022-07-23T01:05:38;22.70;94.70
34153;DHT22;20426;48.372;10.888;2022-07-23T01:06:08;22.70;94.40
34153;DHT22;20426;48.372;10.888;2022-07-23T01:06:40;22.60;94.20
34153;DHT22;20426;48.372;10.888;2022-07-23T01:07:11;22.60;94.30
34153;DHT22;20426;48.372;10.888;2022-07-23T01:07:42;22.60;95.00
34153;DHT22;20426;48.372;10.888;2022-07-23T01:08:13;22.50;95.30
34153;DHT22;20426;48.372;10.888;2022-07-23T01:08:44;22.50;94.90
34153;DHT22;20426;48.372;10.888;2022-07-23T01:09:15;22.50;95.10
34153;DHT22;20426;48.372;10.888;2022-07-23T01:09:46;22.40;94.70
34153;DHT22;20426;48.372;10.888;2022-07-23T01:10:18;22.40;95.00
34153;DHT22;20426;48.372;10.888;2022-07-23T01:11:02;22.40;95.60
34153;DHT22;20426;48.372;10.888;2022-07-23T01:11:36;22.40;95.70
34153;DHT22;20426;48.372;10.888;2022-07-23T01:12:07;22.30;95.50
34153;DHT22;20426;48.372;10.888;2022-07-23T01:12:38;22.20;95.10
34153;DHT22;20426;48.372;10.888;2022-07-23T01:13:10;22.20;95.30
34153;DHT22;20426;48.372;10.888;2022-07-23T01:13:42;22.10;95.40
34153;DHT22;20426;48.372;10.888;2022-07-23T01:14:17;22.10;95.90
34153;DHT22;20426;48.372;10.888;2022-07-23T01:14:59;22.10;96.20
34153;DHT22;20426;48.372;10.888;2022-07-23T01:15:31;22.10;96.80
34153;DHT22;20426;48.372;10.888;2022-07-23T01:16:02;22.00;96.50
34153;DHT22;20426;48.372;10.888;2022-07-23T01:16:33;22.00;96.40
34153;DHT22;20426;48.372;10.888;2022-07-23T01:17:03;21.90;96.50
34153;DHT22;20426;48.372;10.888;2022-07-23T01:17:34;21.90;96.70
34153;DHT22;20426;48.372;10.888;2022-07-23T01:18:06;21.90;97.40
34153;DHT22;20426;48.372;10.888;2022-07-23T01:18:38;21.80;97.50
34153;DHT22;20426;48.372;10.888;2022-07-23T01:19:10;21.80;98.00
34153;DHT22;20426;48.372;10.888;2022-07-23T01:19:41;21.80;98.20
34153;DHT22;20426;48.372;10.888;2022-07-23T01:20:11;21.70;98.50
34153;DHT22;20426;48.372;10.888;2022-07-23T01:20:42;21.70;98.60
34153;DHT22;20426;48.372;10.888;2022-07-23T01:21:13;21.60;98.20
34153;DHT22;20426;48.372;10.888;2022-07-23T01:21:46;21.60;98.30
34153;DHT22;20426;48.372;10.888;2022-07-23T01:22:18;21.60;98.80
34153;DHT22;20426;48.372;10.888;2022-07-23T01:22:50;21.50;99.00
34153;DHT22;20426;48.372;10.888;2022-07-23T01:23:22;21.50;99.70
34153;DHT22;20426;48.372;10.888;2022-07-23T01:23:52;21.50;99.80
34153;DHT22;20426;48.372;10.888;2022-07-23T01:24:23;21.40;99.80
34153;DHT22;20426;48.372;10.888;2022-07-23T01:24:54;21.40;99.90
34153;DHT22;20426;48.372;10.888;2022-07-23T01:25:25;21.40;99.90
34153;DHT22;20426;48.372;10.888;2022-07-23T01:25:56;21.30;99.90
34153;DHT22;20426;48.372;10.888;2022-07-23T01:26:27;21.30;99.90
34153;DHT22;20426;48.372;10.888;2022-07-23T01:26:58;21.20;99.90
34153;DHT22;20426;48.372;10.888;2022-07-23T01:27:28;21.20;99.90
34153;DHT22;20426;48.372;10.888;2022-07-23T01:27:59;21.20;99.90
34153;DHT22;20426;48.372;10.888;2022-07-23T01:28:30;21.20;99.90
34153;DHT22;20426;48.372;10.888;2022-07-23T01:29:01;21.10;99.90
34153;DHT22;20426;48.372;10.888;2022-07-23T01:29:32;21.10;99.90
34153;DHT22;20426;48.372;10.888;2022-07-23T01:30:04;21.00;99.90
34153;DHT22;20426;48.372;10.888;2022-07-23T01:30:35;21.00;99.90
34153;DHT22;20426;48.372;10.888;2022-07-23T01:31:05;21.00;99.90
34153;DHT22;20426;48.372;10.888;2022-07-23T01:31:36;20.90;99.90
34153;DHT22;20426;48.372;10.888;2022-07-23T01:32:07;20.90;99.90
34153;DHT22;20426;48.372;10.888;2022-07-23T01:32:38;20.80;99.90
34153;DHT22;20426;48.372;10.888;2022-07-23T01:33:09;20.80;99.90
34153;DHT22;20426;48.372;10.888;2022-07-23T01:33:39;20.80;99.90
34153;DHT22;20426;48.372;10.888;2022-07-23T01:34:10;20.70;99.90
34153;DHT22;20426;48.372;10.888;2022-07-23T01:34:41;20.70;99.90
34153;DHT22;20426;48.372;10.888;2022-07-23T01:35:12;20.70;99.90
34153;DHT22;20426;48.372;10.888;2022-07-23T01:35:43;20.70;99.90
34153;DHT22;20426;48.372;10.888;2022-07-23T01:36:14;20.70;99.90
34153;DHT22;20426;48.372;10.888;2022-07-23T01:36:44;20.60;99.90
34153;DHT22;20426;48.372;10.888;2022-07-23T01:37:16;20.60;99.90
34153;DHT22;20426;48.372;10.888;2022-07-23T01:37:47;20.60;99.90
34153;DHT22;20426;48.372;10.888;2022-07-23T01:38:18;20.60;99.90
34153;DHT22;20426;48.372;10.888;2022-07-23T01:38:49;20.60;99.90
34153;DHT22;20426;48.372;10.888;2022-07-23T01:39:20;20.60;99.90
34153;DHT22;20426;48.372;10.888;2022-07-23T01:39:51;20.50;99.90
34153;DHT22;20426;48.372;10.888;2022-07-23T01:40:22;20.60;99.90
34153;DHT22;20426;48.372;10.888;2022-07-23T01:40:52;20.50;99.90
34153;DHT22;20426;48.372;10.888;2022-07-23T01:41:23;20.50;99.90
34153;DHT22;20426;48.372;10.888;2022-07-23T01:41:54;20.50;99.90
34153;DHT22;20426;48.372;10.888;2022-07-23T01:42:25;20.40;99.90
34153;DHT22;20426;48.372;10.888;2022-07-23T01:42:56;20.40;99.90
34153;DHT22;20426;48.372;10.888;2022-07-23T01:43:26;20.40;99.90
34153;DHT22;20426;48.372;10.888;2022-07-23T01:43:57;20.30;99.90
34153;DHT22;20426;48.372;10.888;2022-07-23T01:44:28;20.30;99.90
34153;DHT22;20426;48.372;10.888;2022-07-23T01:44:59;20.30;99.90
34153;DHT22;20426;48.372;10.888;2022-07-23T01:45:30;20.30;99.90
34153;DHT22;20426;48.372;10.888;2022-07-23T01:46:00;20.20;99.90
34153;DHT22;20426;48.372;10.888;2022-07-23T01:46:31;20.20;99.90
34153;DHT22;20426;48.372;10.888;2022-07-23T01:47:02;20.20;99.90
34153;DHT22;20426;48.372;10.888;2022-07-23T01:47:33;20.10;99.90
34153;DHT22;20426;48.372;10.888;2022-07-23T01:48:05;20.10;99.90
34153;DHT22;20426;48.372;10.888;2022-07-23T01:48:35;20.10;99.90
34153;DHT22;20426;48.372;10.888;2022-07-23T01:49:06;20.10;99.90
34153;DHT22;20426;48.372;10.888;2022-07-23T01:49:37;20.10;99.90
34153;DHT22;20426;48.372;10.888;2022-07-23T01:50:08;20.10;99.90
34153;DHT22;20426;48.372;10.888;2022-07-23T01:50:39;20.10;99.90
34153;DHT22;20426;48.372;10.888;2022-07-23T01:51:10;20.10;99.90
34153;DHT22;20426;48.372;10.888;2022-07-23T01:51:40;20.00;99.90
34153;DHT22;20426;48.372;10.888;2022-07-23T01:52:30;20.00;99.90
34153;DHT22;20426;48.372;10.888;2022-07-23T01:53:00;20.00;99.90
34153;DHT22;20426;48.372;10.888;2022-07-23T01:53:31;19.90;99.90
34153;DHT22;20426;48.372;10.888;2022-07-23T01:54:02;19.90;99.90
34153;DHT22;20426;48.372;10.888;2022-07-23T01:54:33;19.90;99.90
34153;DHT22;20426;48.372;10.888;2022-07-23T01:55:05;19.80;99.90
34153;DHT22;20426;48.372;10.888;2022-07-23T01:55:36;19.80;99.90
34153;DHT22;20426;48.372;10.888;2022-07-23T01:56:07;19.80;99.90
34153;DHT22;20426;48.372;10.888;2022-07-23T01:56:38;19.80;99.90
34153;DHT22;20426;48.372;10.888;2022-07-23T01:57:08;19.80;99.90
34153;DHT22;20426;48.372;10.888;2022-07-23T01:57:39;19.70;99.90
34153;DHT22;20426;48.372;10.888;2022-07-23T01:58:10;19.80;99.90
34153;DHT22;20426;48.372;10.888;2022-07-23T01:58:41;19.80;99.90
34153;DHT22;20426;48.372;10.888;2022-07-23T01:59:12;19.80;99.90
34153;DHT22;20426;48.372;10.888;2022-07-23T01:59:42;19.70;99.90
34153;DHT22;20426;48.372;10.888;2022-07-23T02:00:13;19.70;99.90
34153;DHT22;20426;48.372;10.888;2022-07-23T02:00:44;19.80;99.90
34153;DHT22;20426;48.372;10.888;2022-07-23T02:01:15;19.80;99.90
34153;DHT22;20426;48.372;10.888;2022-07-23T02:01:46;19.80;99.90
34153;DHT22;20426;48.372;10.888;2022-07-23T02:02:17;19.80;99.90
34153;DHT22;20426;48.372;10.888;2022-07-23T02:02:47;19.80;99.90
34153;DHT22;20426;48.372;10.888;2022-07-23T02:03:18;19.70;99.90
34153;DHT22;20426;48.372;10.888;2022-07-23T02:03:49;19.70;99.90
34153;DHT22;20426;48.372;10.888;2022-07-23T02:04:21;19.70;99.90
34153;DHT22;20426;48.372;10.888;2022-07-23T02:04:52;19.70;99.90
34153;DHT22;20426;48.372;10.888;2022-07-23T02:05:23;19.60;99.90
34153;DHT22;20426;48.372;10.888;2022-07-23T02:05:54;19.60;99.90
34153;DHT22;20426;48.372;10.888;2022-07-23T02:06:24;19.60;99.90
34153;DHT22;20426;48.372;10.888;2022-07-23T02:06:55;19.60;99.90
34153;DHT22;20426;48.372;10.888;2022-07-23T02:07:26;19.50;99.90
34153;DHT22;20426;48.372;10.888;2022-07-23T02:07:58;19.50;99.90
34153;DHT22;20426;48.372;10.888;2022-07-23T02:08:29;19.60;99.90
34153;DHT22;20426;48.372;10.888;2022-07-23T02:08:59;19.60;99.90
34153;DHT22;20426;48.372;10.888;2022-07-23T02:09:30;19.60;99.90
34153;DHT22;20426;48.372;10.888;2022-07-23T02:10:01;19.50;99.90
34153;DHT22;20426;48.372;10.888;2022-07-23T02:10:32;19.50;99.90
34153;DHT22;20426;48.372;10.888;2022-07-23T02:11:03;19.50;99.90
34153;DHT22;20426;48.372;10.888;2022-07-23T02:11:34;19.50;99.90
34153;DHT22;20426;48.372;10.888;2022-07-23T02:12:05;19.50;99.90
34153;DHT22;20426;48.372;10.888;2022-07-23T02:12:36;19.50;99.90
34153;DHT22;20426;48.372;10.888;2022-07-23T02:13:06;19.50;99.90
34153;DHT22;20426;48.372;10.888;2022-07-23T02:13:37;19.50;99.90
34153;DHT22;20426;48.372;10.888;2022-07-23T02:14:08;19.50;99.90
34153;DHT22;20426;48.372;10.888;2022-07-23T02:14:39;19.50;99.90
34153;DHT22;20426;48.372;10.888;2022-07-23T02:15:10;19.50;99.90
34153;DHT22;20426;48.372;10.888;2022-07-23T02:15:40;19.50;99.90
34153;DHT22;20426;48.372;10.888;2022-07-23T02:16:11;19.50;99.90
34153;DHT22;20426;48.372;10.888;2022-07-23T02:16:42;19.50;99.90
34153;DHT22;20426;48.372;10.888;2022-07-23T02:17:13;19.50;99.90
34153;DHT22;20426;48.372;10.888;2022-07-23T02:17:43;19.50;99.90
34153;DHT22;20426;48.372;10.888;2022-07-23T02:18:14;19.50;99.90
34153;DHT22;20426;48.372;10.888;2022-07-23T02:18:45;19.50;99.90
34153;DHT22;20426;48.372;10.888;2022-07-23T02:19:17;19.50;99.90
34153;DHT22;20426;48.372;10.888;2022-07-23T02:19:48;19.50;99.90
34153;DHT22;20426;48.372;10.888;2022-07-23T02:20:18;19.50;99.90
34153;DHT22;20426;48.372;10.888;2022-07-23T02:20:49;19.50;99.90
34153;DHT22;20426;48.372;10.888;2022-07-23T02:21:20;19.50;99.90
34153;DHT22;20426;48.372;10.888;2022-07-23T02:21:51;19.50;99.90
34153;DHT22;20426;48.372;10.888;2022-07-23T02:22:21;19.50;99.90
34153;DHT22;20426;48.372;10.888;2022-07-23T02:22:52;19.50;99.90
34153;DHT22;20426;48.372;10.888;2022-07-23T02:23:23;19.50;99.90
34153;DHT22;20426;48.372;10.888;2022-07-23T02:23:54;19.50;99.90
34153;DHT22;20426;48.372;10.888;2022-07-23T02:24:25;19.50;99.90
34153;DHT22;20426;48.372;10.888;2022-07-23T02:24:56;19.50;99.90
34153;DHT22;20426;48.372;10.888;2022-07-23T02:25:27;19.50;99.90
34153;DHT22;20426;48.372;10.888;2022-07-23T02:25:57;19.50;99.90
34153;DHT22;20426;48.372;10.888;2022-07-23T02:26:28;19.50;99.90
34153;DHT22;20426;48.372;10.888;2022-07-23T02:26:59;19.50;99.90
34153;DHT22;20426;48.372;10.888;2022-07-23T02:27:30;19.50;99.90
34153;DHT22;20426;48.372;10.888;2022-07-23T02:28:01;19.50;99.90
34153;DHT22;20426;48.372;10.888;2022-07-23T02:28:32;19.50;99.90
34153;DHT22;20426;48.372;10.888;2022-07-23T02:29:03;19.50;99.90
34153;DHT22;20426;48.372;10.888;2022-07-23T02:29:34;19.50;99.90
34153;DHT22;20426;48.372;10.888;2022-07-23T02:30:05;19.50;99.90
34153;DHT22;20426;48.372;10.888;2022-07-23T02:30:36;19.60;99.90
34153;DHT22;20426;48.372;10.888;2022-07-23T02:31:08;19.50;99.90
34153;DHT22;20426;48.372;10.888;2022-07-23T02:31:39;19.50;99.90
34153;DHT22;20426;48.372;10.888;2022-07-23T02:32:09;19.50;99.90
34153;DHT22;20426;48.372;10.888;2022-07-23T02:32:40;19.50;99.90
34153;DHT22;20426;48.372;10.888;2022-07-23T02:33:11;19.60;99.90
34153;DHT22;20426;48.372;10.888;2022-07-23T02:33:42;19.60;99.90
34153;DHT22;20426;48.372;10.888;2022-07-23T02:34:12;19.60;99.90
34153;DHT22;20426;48.372;10.888;2022-07-23T02:34:43;19.60;99.90
34153;DHT22;20426;48.372;10.888;2022-07-23T02:35:14;19.60;99.90
34153;DHT22;20426;48.372;10.888;2022-07-23T02:35:45;19.60;99.90
34153;DHT22;20426;48.372;10.888;2022-07-23T02:36:15;19.50;99.90
34153;DHT22;20426;48.372;10.888;2022-07-23T02:36:46;19.50;99.90
34153;DHT22;20426;48.372;10.888;2022-07-23T02:37:17;19.60;99.90
34153;DHT22;20426;48.372;10.888;2022-07-23T02:37:48;19.60;99.90
34153;DHT22;20426;48.372;10.888;2022-07-23T02:38:19;19.60;99.90
34153;DHT22;20426;48.372;10.888;2022-07-23T02:38:50;19.60;99.90
34153;DHT22;20426;48.372;10.888;2022-07-23T02:39:20;19.60;99.90
34153;DHT22;20426;48.372;10.888;2022-07-23T02:39:51;19.60;99.90
34153;DHT22;20426;48.372;10.888;2022-07-23T02:40:22;19.60;99.90
34153;DHT22;20426;48.372;10.888;2022-07-23T02:40:53;19.60;99.90
34153;DHT22;20426;48.372;10.888;2022-07-23T02:41:23;19.60;99.90
34153;DHT22;20426;48.372;10.888;2022-07-23T02:41:54;19.60;99.90
34153;DHT22;20426;48.372;10.888;2022-07-23T02:42:25;19.60;99.90
34153;DHT22;20426;48.372;10.888;2022-07-23T02:42:56;19.60;99.90
34153;DHT22;20426;48.372;10.888;2022-07-23T02:43:26;19.70;99.90
34153;DHT22;20426;48.372;10.888;2022-07-23T02:43:57;19.70;99.90
34153;DHT22;20426;48.372;10.888;2022-07-23T02:44:28;19.70;99.90
34153;DHT22;20426;48.372;10.888;2022-07-23T02:44:58;19.70;99.90
34153;DHT22;20426;48.372;10.888;2022-07-23T02:45:29;19.70;99.90
34153;DHT22;20426;48.372;10.888;2022-07-23T02:46:00;19.70;99.90
34153;DHT22;20426;48.372;10.888;2022-07-23T02:46:31;19.70;99.90
34153;DHT22;20426;48.372;10.888;2022-07-23T02:47:02;19.70;99.90
34153;DHT22;20426;48.372;10.888;2022-07-23T02:47:33;19.70;99.90
34153;DHT22;20426;48.372;10.888;2022-07-23T02:48:04;19.70;99.90
34153;DHT22;20426;48.372;10.888;2022-07-23T02:48:35;19.70;99.90
34153;DHT22;20426;48.372;10.888;2022-07-23T02:49:05;19.70;99.90
34153;DHT22;20426;48.372;10.888;2022-07-23T02:49:36;19.70;99.90
34153;DHT22;20426;48.372;10.888;2022-07-23T02:50:07;19.70;99.90
34153;DHT22;20426;48.372;10.888;2022-07-23T02:50:38;19.70;99.90
34153;DHT22;20426;48.372;10.888;2022-07-23T02:51:09;19.70;99.90
34153;DHT22;20426;48.372;10.888;2022-07-23T02:51:40;19.70;99.90
34153;DHT22;20426;48.372;10.888;2022-07-23T02:52:10;19.70;99.90
34153;DHT22;20426;48.372;10.888;2022-07-23T02:52:41;19.70;99.90
34153;DHT22;20426;48.372;10.888;2022-07-23T02:53:12;19.70;99.90
34153;DHT22;20426;48.372;10.888;2022-07-23T02:53:43;19.70;99.90
34153;DHT22;20426;48.372;10.888;2022-07-23T02:54:14;19.70;99.90
34153;DHT22;20426;48.372;10.888;2022-07-23T02:54:44;19.70;99.90
34153;DHT22;20426;48.372;10.888;2022-07-23T02:55:15;19.70;99.90
34153;DHT22;20426;48.372;10.888;2022-07-23T02:55:46;19.70;99.90
34153;DHT22;20426;48.372;10.888;2022-07-23T02:56:16;19.70;99.90
34153;DHT22;20426;48.372;10.888;2022-07-23T02:56:47;19.70;99.90
34153;DHT22;20426;48.372;10.888;2022-07-23T02:57:18;19.70;99.90
34153;DHT22;20426;48.372;10.888;2022-07-23T02:57:49;19.70;99.90
34153;DHT22;20426;48.372;10.888;2022-07-23T02:58:19;19.70;99.90
34153;DHT22;20426;48.372;10.888;2022-07-23T02:58:50;19.70;99.90
34153;DHT22;20426;48.372;10.888;2022-07-23T02:59:21;19.70;99.90
34153;DHT22;20426;48.372;10.888;2022-07-23T02:59:52;19.70;99.90
34153;DHT22;20426;48.372;10.888;2022-07-23T03:00:23;19.70;99.90
34153;DHT22;20426;48.372;10.888;2022-07-23T03:00:54;19.70;99.90
34153;DHT22;20426;48.372;10.888;2022-07-23T03:01:24;19.70;99.90
34153;DHT22;20426;48.372;10.888;2022-07-23T03:01:55;19.70;99.90
34153;DHT22;20426;48.372;10.888;2022-07-23T03:02:26;19.70;99.90
34153;DHT22;20426;48.372;10.888;2022-07-23T03:02:57;19.70;99.90
34153;DHT22;20426;48.372;10.888;2022-07-23T03:03:27;19.70;99.90
34153;DHT22;20426;48.372;10.888;2022-07-23T03:03:58;19.70;99.90
34153;DHT22;20426;48.372;10.888;2022-07-23T03:04:29;19.70;99.90
34153;DHT22;20426;48.372;10.888;2022-07-23T03:04:59;19.70;99.90
34153;DHT22;20426;48.372;10.888;2022-07-23T03:05:30;19.70;99.90
34153;DHT22;20426;48.372;10.888;2022-07-23T03:06:01;19.60;99.90
34153;DHT22;20426;48.372;10.888;2022-07-23T03:06:32;19.60;99.90
34153;DHT22;20426;48.372;10.888;2022-07-23T03:07:02;19.70;99.90
34153;DHT22;20426;48.372;10.888;2022-07-23T03:07:33;19.70;99.90
34153;DHT22;20426;48.372;10.888;2022-07-23T03:08:04;19.70;99.90
34153;DHT22;20426;48.372;10.888;2022-07-23T03:08:35;19.70;99.90
34153;DHT22;20426;48.372;10.888;2022-07-23T03:09:05;19.70;99.90
34153;DHT22;20426;48.372;10.888;2022-07-23T03:09:36;19.70;99.90
34153;DHT22;20426;48.372;10.888;2022-07-23T03:10:07;19.70;99.90
34153;DHT22;20426;48.372;10.888;2022-07-23T03:10:38;19.70;99.90
34153;DHT22;20426;48.372;10.888;2022-07-23T03:11:09;19.70;99.90
34153;DHT22;20426;48.372;10.888;2022-07-23T03:11:41;19.70;99.90
34153;DHT22;20426;48.372;10.888;2022-07-23T03:12:12;19.70;99.90
34153;DHT22;20426;48.372;10.888;2022-07-23T03:12:42;19.70;99.90
34153;DHT22;20426;48.372;10.888;2022-07-23T03:13:13;19.70;99.90